Warning: fopen(/var/www/metroair/shared/private/wxdata/metar/AVWX/metar_EDHI): failed to open stream: Permission denied in /var/www/metroair/shared/private/library/orig_library/lib_airport.php on line 346

Warning: fwrite() expects parameter 1 to be resource, boolean given in /var/www/metroair/shared/private/library/orig_library/lib_airport.php on line 347

Warning: fclose() expects parameter 1 to be resource, boolean given in /var/www/metroair/shared/private/library/orig_library/lib_airport.php on line 348

Warning: fopen(/var/www/metroair/shared/private/wxdata/metar/AVWX/metar_BGSF): failed to open stream: Permission denied in /var/www/metroair/shared/private/library/orig_library/lib_airport.php on line 346

Warning: fwrite() expects parameter 1 to be resource, boolean given in /var/www/metroair/shared/private/library/orig_library/lib_airport.php on line 347

Warning: fclose() expects parameter 1 to be resource, boolean given in /var/www/metroair/shared/private/library/orig_library/lib_airport.php on line 348

Warning: fopen(/var/www/metroair/shared/private/wxdata/TAF/AVWX/taf_BGSF): failed to open stream: Permission denied in /var/www/metroair/shared/private/library/orig_library/lib_airport.php on line 533

Warning: fwrite() expects parameter 1 to be resource, boolean given in /var/www/metroair/shared/private/library/orig_library/lib_airport.php on line 534

Warning: fclose() expects parameter 1 to be resource, boolean given in /var/www/metroair/shared/private/library/orig_library/lib_airport.php on line 535

MET7782 - Hamburg to Kangerlussuaq

Airbus A321-232
665MT - Sharklet Equipped
4 hrs 40 mins
1881 nm
Ferry - M

Departure

Departing from
Hamburg (XFW)
Departure gate
Delivery Centre
Scheduled Departure
GMT 0700
Local 0800
METAR EDHI 220620Z 25023KT 7000 -RADZ SCT009 BKN011 09/08 Q0997
TAF TAF EDHI 220509Z 2206/2215 24020G30KT 4000 RADZ BKN006 PROB30 TEMPO 2206/2209 6000 NSW BKN010 BECMG 2209/2211 9999 NSW BKN025
  • No charts available

Arrival

Arriving at
Kangerlussuaq (SFJ)
Arrival gate
Ramp
Scheduled Arrival
GMT 1140
Local 0840
METAR BGSF 220550Z AUTO 06006KT 9999NDV -IC FEW035/// M31/M34 Q1003
TAF TAF BGSF 220458Z 2206/2312 VRB05KT 9999 FEW020 SCT040 BKN080 TEMPO 2206/2224 3000 -SN BKN018

Route Map

Planning Resources

LBE P992 VES M609 SVA L621 ZOL P603 FLS N623 VALDI/M027F100
LBE UP992 VES UP613 VALDI G3 METIL KEF DCT GIMLI DCT DA DCT SF
LBE UP992 ZOL UG11 MY G3 KEF HEKLA PEVAR GANGI BGSF
EDHI LBE6W LBE P992 SOVES P992 SOVES UP992 ISVIG ING G3 KEF 6532N 6644N BGSF
EDHI HAM DA MASIK PEVAR GANGI BGSF
Route:
OFP Layout:
Units:
Detailed Navlog:
ETOPS Planning:
Plan Stepclimbs:
Runway Analysis:
Include NOTAMS:
FIR NOTAMS:
Flight Maps:

Popularity

Hub Current Bids PiReps this month Total PiReps
KMCI 0 0 2
KLAX 0 0 0
KBOS 0 0 0